»·PEaware :: AAL100 KLAX-KPHX

AAL100 :: KLAX-KPHX

FLIGHT INFORMATION

Flight Status: Arrived
Operator:
American Airlines
More flights by this operator :: More flights under this callsign
Pilot: Max W. (2591)
Aircraft: BOEING 777-200
(B772)
More flights by this aircraft type
Origin: KLAX Los Angeles Intl
United States
Destination: KPHX Phoenix Sky Harbor Intl
United States
More flights between these airports :: More routes between these airports
Route: +DOTSS2 CNERY BLH HYDRR1
File this flight plan on PilotEdge
Remarks: STUDENT PILOT SORRY FOR THE TROUBLE! ONE STRIKE LEFT!
Altitude:
(Current/Filed)
35,000ft
Speed:
(Current/Filed)
450kts
Departed: 01-Jan-20 11:17 AM
Arrived: 01-Jan-20 12:11 PM
Distance/Time
Traveled:
321nm/0:54
Distance/Time
To Go:
Arrived

Flight Plot

Page will automatically refresh every two minutes.

Flight plan parsing failed; only flown route is shown


Map Options




Map Legend


Flown Route
Filed Route
Departure Airport
Arrival Airport
Navaid (VOR, NDB)
Fix

Horizontal Profiles

Position Reports

Time Latitude Longitude Heading Altitude Ground
Speed
01-Jan-20 10:50 33.941740 -118.400158 80 139ft 0kts
01-Jan-20 10:52 33.941716 -118.400339 80 139ft 2kts
01-Jan-20 10:53 33.941625 -118.401030 80 139ft 0kts
01-Jan-20 10:54 33.941625 -118.401029 80 139ft 0kts
01-Jan-20 10:55 33.941625 -118.401028 80 139ft 0kts
01-Jan-20 10:56 33.941625 -118.401028 80 139ft 0kts
01-Jan-20 10:57 33.941625 -118.401027 80 139ft 0kts
01-Jan-20 10:58 33.941625 -118.401027 80 139ft 0kts
01-Jan-20 10:59 33.941625 -118.401026 80 139ft 0kts
01-Jan-20 11:00 33.941625 -118.401026 80 139ft 0kts
01-Jan-20 11:01 33.941625 -118.401025 80 139ft 0kts
01-Jan-20 11:02 33.941625 -118.401024 80 139ft 0kts
01-Jan-20 11:03 33.941626 -118.401024 80 139ft 0kts
01-Jan-20 11:04 33.941626 -118.401023 80 139ft 0kts
01-Jan-20 11:05 33.941626 -118.401023 80 139ft 0kts
01-Jan-20 11:06 33.941626 -118.401022 80 139ft 0kts
01-Jan-20 11:07 33.941626 -118.401021 80 139ft 0kts
01-Jan-20 11:08 33.940307 -118.400563 176 139ft 1kts
01-Jan-20 11:09 33.938869 -118.399500 90 139ft 12kts
01-Jan-20 11:10 33.939204 -118.396177 83 139ft 8kts
01-Jan-20 11:11 33.939731 -118.391055 83 139ft 18kts
01-Jan-20 11:12 33.940291 -118.385439 82 139ft 15kts
01-Jan-20 11:13 33.940747 -118.381060 92 139ft 10kts
01-Jan-20 11:14 33.940743 -118.381010 95 139ft 0kts
01-Jan-20 11:14 33.940743 -118.381009 95 139ft 0kts
01-Jan-20 11:16 33.939779 -118.380995 262 139ft 16kts
01-Jan-20 11:17 33.934825 -118.427487 262 1332ft 205kts
01-Jan-20 11:17 33.918769 -118.482465 232 3680ft 238kts
01-Jan-20 11:19 33.858903 -118.553609 202 7436ft 285kts
01-Jan-20 11:20 33.776198 -118.542605 167 10478ft 326kts
01-Jan-20 11:20 33.700232 -118.505226 132 12088ft 391kts
01-Jan-20 11:22 33.652143 -118.359572 96 15736ft 421kts
01-Jan-20 11:22 33.644245 -118.242841 85 16996ft 433kts
01-Jan-20 11:23 33.644910 -118.101910 84 16973ft 421kts
01-Jan-20 11:24 33.644640 -117.958723 84 19961ft 436kts
01-Jan-20 11:25 33.641188 -117.810584 93 22990ft 459kts
01-Jan-20 11:26 33.610581 -117.658042 100 25623ft 483kts
01-Jan-20 11:27 33.571633 -117.500423 99 27820ft 502kts
01-Jan-20 11:28 33.531006 -117.337775 98 29808ft 517kts
01-Jan-20 11:29 33.505331 -117.170039 85 31722ft 504kts
01-Jan-20 11:30 33.501391 -117.005201 81 33766ft 492kts
01-Jan-20 11:31 33.498887 -116.841763 82 35132ft 491kts
01-Jan-20 11:32 33.497012 -116.680642 82 35131ft 483kts
01-Jan-20 11:33 33.493972 -116.519097 82 35132ft 484kts
01-Jan-20 11:34 33.491421 -116.358032 82 35120ft 483kts
01-Jan-20 11:35 33.488895 -116.197001 82 35114ft 484kts
01-Jan-20 11:36 33.489022 -116.036952 73 35110ft 472kts
01-Jan-20 11:37 33.527497 -115.891502 60 35111ft 455kts
01-Jan-20 11:38 33.569871 -115.748069 62 35112ft 457kts
01-Jan-20 11:39 33.611565 -115.603755 62 35116ft 457kts
01-Jan-20 11:40 33.623831 -115.447947 85 35117ft 486kts
01-Jan-20 11:41 33.612009 -115.286108 86 35121ft 485kts
01-Jan-20 11:42 33.605911 -115.126129 81 35123ft 479kts
01-Jan-20 11:43 33.602198 -114.966466 82 35126ft 479kts
01-Jan-20 11:44 33.597434 -114.807183 82 34709ft 468kts
01-Jan-20 11:45 33.575620 -114.651284 94 32410ft 479kts
01-Jan-20 11:46 33.544590 -114.498083 93 30436ft 466kts
01-Jan-20 11:47 33.515793 -114.348533 94 28389ft 457kts
01-Jan-20 11:48 33.486763 -114.202235 96 26318ft 446kts
01-Jan-20 11:49 33.458696 -114.061483 97 25149ft 418kts
01-Jan-20 11:50 33.431411 -113.925795 97 25113ft 419kts
01-Jan-20 11:51 33.404253 -113.789773 97 25113ft 418kts
01-Jan-20 11:52 33.377067 -113.655227 97 24362ft 405kts
01-Jan-20 11:53 33.350804 -113.526963 98 20936ft 396kts
01-Jan-20 11:54 33.326688 -113.401050 96 19634ft 379kts
01-Jan-20 11:55 33.305687 -113.277988 96 18619ft 377kts
01-Jan-20 11:56 33.286669 -113.155949 94 17546ft 370kts
01-Jan-20 11:57 33.275112 -113.037281 85 16573ft 344kts
01-Jan-20 11:58 33.278028 -112.925199 83 15718ft 335kts
01-Jan-20 11:59 33.280768 -112.815452 82 14853ft 320kts
01-Jan-20 12:00 33.290581 -112.712204 78 14022ft 311kts
01-Jan-20 12:01 33.300665 -112.609721 79 13192ft 308kts
01-Jan-20 12:02 33.310035 -112.507360 79 12357ft 306kts
01-Jan-20 12:03 33.319164 -112.406503 80 11553ft 306kts
01-Jan-20 12:04 33.350592 -112.319523 38 10666ft 274kts
01-Jan-20 12:05 33.407395 -112.257419 45 8110ft 270kts
01-Jan-20 12:06 33.444846 -112.187577 84 5062ft 249kts
01-Jan-20 12:07 33.441139 -112.108731 92 2666ft 211kts
01-Jan-20 12:08 33.440827 -112.049440 90 1472ft 154kts
01-Jan-20 12:09 33.440855 -112.010191 89 1149ft 62kts
01-Jan-20 12:10 33.438076 -112.000328 175 1148ft 0kts

Navigation Log

Ident Type
Flight plan parsing failed, navigation log unavailable